sensor_id;sensor_type;location;lat;lon;timestamp;P1;durP1;ratioP1;P2;durP2;ratioP2
75941;SDS011;64622;46.220;19.878;2023-07-31T00:00:54;14.80;;;7.80;;
75941;SDS011;64622;46.220;19.878;2023-07-31T00:03:22;14.98;;;8.18;;
75941;SDS011;64622;46.220;19.878;2023-07-31T00:05:48;14.20;;;8.23;;
75941;SDS011;64622;46.220;19.878;2023-07-31T00:08:14;15.57;;;8.63;;
75941;SDS011;64622;46.220;19.878;2023-07-31T00:10:41;14.70;;;8.27;;
75941;SDS011;64622;46.220;19.878;2023-07-31T00:13:08;14.30;;;8.43;;
75941;SDS011;64622;46.220;19.878;2023-07-31T00:15:34;15.70;;;8.23;;
75941;SDS011;64622;46.220;19.878;2023-07-31T00:18:01;13.27;;;7.20;;
75941;SDS011;64622;46.220;19.878;2023-07-31T00:20:27;14.57;;;7.22;;
75941;SDS011;64622;46.220;19.878;2023-07-31T00:22:54;15.10;;;7.80;;
75941;SDS011;64622;46.220;19.878;2023-07-31T00:25:21;12.68;;;7.37;;
75941;SDS011;64622;46.220;19.878;2023-07-31T00:27:47;12.45;;;7.80;;
75941;SDS011;64622;46.220;19.878;2023-07-31T00:30:14;11.63;;;6.73;;
75941;SDS011;64622;46.220;19.878;2023-07-31T00:32:41;15.55;;;7.20;;
75941;SDS011;64622;46.220;19.878;2023-07-31T00:35:07;12.85;;;7.62;;
75941;SDS011;64622;46.220;19.878;2023-07-31T00:37:34;15.82;;;7.57;;
75941;SDS011;64622;46.220;19.878;2023-07-31T00:40:01;13.88;;;6.95;;
75941;SDS011;64622;46.220;19.878;2023-07-31T00:42:29;12.90;;;7.57;;
75941;SDS011;64622;46.220;19.878;2023-07-31T00:44:56;11.93;;;7.12;;
75941;SDS011;64622;46.220;19.878;2023-07-31T00:47:23;14.70;;;7.32;;
75941;SDS011;64622;46.220;19.878;2023-07-31T00:49:49;14.80;;;8.07;;
75941;SDS011;64622;46.220;19.878;2023-07-31T00:52:16;12.90;;;7.35;;
75941;SDS011;64622;46.220;19.878;2023-07-31T00:54:45;13.40;;;7.60;;
75941;SDS011;64622;46.220;19.878;2023-07-31T00:57:11;12.20;;;7.15;;
75941;SDS011;64622;46.220;19.878;2023-07-31T00:59:37;13.13;;;7.43;;
75941;SDS011;64622;46.220;19.878;2023-07-31T01:02:04;13.35;;;7.03;;
75941;SDS011;64622;46.220;19.878;2023-07-31T01:04:31;13.18;;;7.03;;
75941;SDS011;64622;46.220;19.878;2023-07-31T01:07:09;13.03;;;6.80;;
75941;SDS011;64622;46.220;19.878;2023-07-31T01:12:41;12.68;;;7.22;;
75941;SDS011;64622;46.220;19.878;2023-07-31T01:15:11;15.88;;;7.25;;
75941;SDS011;64622;46.220;19.878;2023-07-31T01:17:40;15.18;;;7.70;;
75941;SDS011;64622;46.220;19.878;2023-07-31T01:20:12;15.20;;;7.43;;
75941;SDS011;64622;46.220;19.878;2023-07-31T01:28:07;15.45;;;8.23;;
75941;SDS011;64622;46.220;19.878;2023-07-31T01:30:44;15.52;;;8.68;;
75941;SDS011;64622;46.220;19.878;2023-07-31T01:33:15;16.77;;;8.83;;
75941;SDS011;64622;46.220;19.878;2023-07-31T01:35:43;13.10;;;8.13;;
75941;SDS011;64622;46.220;19.878;2023-07-31T01:38:12;14.68;;;8.07;;
75941;SDS011;64622;46.220;19.878;2023-07-31T01:40:41;14.63;;;7.85;;
75941;SDS011;64622;46.220;19.878;2023-07-31T01:43:09;17.30;;;8.55;;
75941;SDS011;64622;46.220;19.878;2023-07-31T01:45:35;14.30;;;7.97;;
75941;SDS011;64622;46.220;19.878;2023-07-31T01:48:02;15.77;;;8.43;;
75941;SDS011;64622;46.220;19.878;2023-07-31T01:50:29;14.75;;;8.13;;
75941;SDS011;64622;46.220;19.878;2023-07-31T01:52:55;12.60;;;7.78;;
75941;SDS011;64622;46.220;19.878;2023-07-31T01:55:23;15.50;;;8.32;;
75941;SDS011;64622;46.220;19.878;2023-07-31T01:57:51;13.30;;;7.23;;
75941;SDS011;64622;46.220;19.878;2023-07-31T02:00:18;14.68;;;8.27;;
75941;SDS011;64622;46.220;19.878;2023-07-31T02:02:45;16.85;;;8.95;;
75941;SDS011;64622;46.220;19.878;2023-07-31T02:05:12;15.30;;;8.52;;
75941;SDS011;64622;46.220;19.878;2023-07-31T02:07:38;16.37;;;8.73;;
75941;SDS011;64622;46.220;19.878;2023-07-31T02:10:06;15.57;;;9.60;;
75941;SDS011;64622;46.220;19.878;2023-07-31T02:12:35;16.55;;;9.02;;
75941;SDS011;64622;46.220;19.878;2023-07-31T02:15:02;17.40;;;8.40;;
75941;SDS011;64622;46.220;19.878;2023-07-31T02:17:28;15.57;;;8.50;;
75941;SDS011;64622;46.220;19.878;2023-07-31T02:19:56;16.83;;;8.73;;
75941;SDS011;64622;46.220;19.878;2023-07-31T02:22:22;16.23;;;8.53;;
75941;SDS011;64622;46.220;19.878;2023-07-31T02:24:49;17.15;;;8.73;;
75941;SDS011;64622;46.220;19.878;2023-07-31T02:27:16;15.00;;;7.93;;
75941;SDS011;64622;46.220;19.878;2023-07-31T02:29:42;16.02;;;8.27;;
75941;SDS011;64622;46.220;19.878;2023-07-31T02:32:09;18.02;;;8.35;;
75941;SDS011;64622;46.220;19.878;2023-07-31T02:34:36;16.20;;;8.80;;
75941;SDS011;64622;46.220;19.878;2023-07-31T02:37:02;16.33;;;8.88;;
75941;SDS011;64622;46.220;19.878;2023-07-31T02:39:29;14.93;;;8.95;;
75941;SDS011;64622;46.220;19.878;2023-07-31T02:41:56;21.37;;;8.75;;
75941;SDS011;64622;46.220;19.878;2023-07-31T02:44:23;17.48;;;9.02;;
75941;SDS011;64622;46.220;19.878;2023-07-31T02:46:50;16.90;;;9.47;;
75941;SDS011;64622;46.220;19.878;2023-07-31T02:49:16;17.65;;;9.35;;
75941;SDS011;64622;46.220;19.878;2023-07-31T02:51:43;17.20;;;8.77;;
75941;SDS011;64622;46.220;19.878;2023-07-31T02:54:10;20.45;;;9.57;;
75941;SDS011;64622;46.220;19.878;2023-07-31T02:56:37;18.80;;;9.85;;
75941;SDS011;64622;46.220;19.878;2023-07-31T02:59:03;18.37;;;9.43;;
75941;SDS011;64622;46.220;19.878;2023-07-31T03:01:30;17.05;;;9.48;;
75941;SDS011;64622;46.220;19.878;2023-07-31T03:03:58;16.35;;;9.73;;
75941;SDS011;64622;46.220;19.878;2023-07-31T03:06:25;18.62;;;10.20;;
75941;SDS011;64622;46.220;19.878;2023-07-31T03:08:53;19.73;;;9.88;;
75941;SDS011;64622;46.220;19.878;2023-07-31T03:11:20;16.40;;;8.87;;
75941;SDS011;64622;46.220;19.878;2023-07-31T03:13:46;17.58;;;10.30;;
75941;SDS011;64622;46.220;19.878;2023-07-31T03:16:13;17.40;;;9.50;;
75941;SDS011;64622;46.220;19.878;2023-07-31T03:18:40;20.08;;;9.90;;
75941;SDS011;64622;46.220;19.878;2023-07-31T03:21:07;18.08;;;9.52;;
75941;SDS011;64622;46.220;19.878;2023-07-31T03:23:34;17.33;;;9.53;;
75941;SDS011;64622;46.220;19.878;2023-07-31T03:26:01;20.35;;;10.10;;
75941;SDS011;64622;46.220;19.878;2023-07-31T03:28:29;21.17;;;9.73;;
75941;SDS011;64622;46.220;19.878;2023-07-31T03:30:56;20.30;;;10.13;;
75941;SDS011;64622;46.220;19.878;2023-07-31T03:33:23;20.10;;;9.95;;
75941;SDS011;64622;46.220;19.878;2023-07-31T03:35:50;17.23;;;8.87;;
75941;SDS011;64622;46.220;19.878;2023-07-31T03:38:17;16.42;;;8.30;;
75941;SDS011;64622;46.220;19.878;2023-07-31T03:40:44;16.65;;;8.82;;
75941;SDS011;64622;46.220;19.878;2023-07-31T03:43:11;19.25;;;9.57;;
75941;SDS011;64622;46.220;19.878;2023-07-31T03:45:38;16.52;;;8.68;;
75941;SDS011;64622;46.220;19.878;2023-07-31T03:48:05;17.13;;;9.30;;
75941;SDS011;64622;46.220;19.878;2023-07-31T03:50:34;19.30;;;8.85;;
75941;SDS011;64622;46.220;19.878;2023-07-31T03:53:00;16.80;;;8.65;;
75941;SDS011;64622;46.220;19.878;2023-07-31T03:55:27;18.58;;;7.62;;
75941;SDS011;64622;46.220;19.878;2023-07-31T03:57:54;16.70;;;8.50;;
75941;SDS011;64622;46.220;19.878;2023-07-31T04:00:20;17.13;;;8.27;;
75941;SDS011;64622;46.220;19.878;2023-07-31T04:02:48;15.10;;;7.72;;
75941;SDS011;64622;46.220;19.878;2023-07-31T04:05:15;13.60;;;7.10;;
75941;SDS011;64622;46.220;19.878;2023-07-31T04:07:41;14.50;;;7.12;;
75941;SDS011;64622;46.220;19.878;2023-07-31T04:10:08;15.52;;;6.93;;
75941;SDS011;64622;46.220;19.878;2023-07-31T04:12:35;11.90;;;6.63;;
75941;SDS011;64622;46.220;19.878;2023-07-31T04:15:02;12.48;;;6.43;;
75941;SDS011;64622;46.220;19.878;2023-07-31T04:17:29;12.20;;;6.53;;
75941;SDS011;64622;46.220;19.878;2023-07-31T04:19:56;13.23;;;6.75;;
75941;SDS011;64622;46.220;19.878;2023-07-31T04:22:22;12.10;;;5.72;;
75941;SDS011;64622;46.220;19.878;2023-07-31T04:24:49;13.17;;;6.07;;
75941;SDS011;64622;46.220;19.878;2023-07-31T04:27:16;11.05;;;5.62;;
75941;SDS011;64622;46.220;19.878;2023-07-31T04:29:42;12.93;;;5.57;;
75941;SDS011;64622;46.220;19.878;2023-07-31T04:32:10;13.60;;;8.10;;
75941;SDS011;64622;46.220;19.878;2023-07-31T04:34:37;8.88;;;4.32;;
75941;SDS011;64622;46.220;19.878;2023-07-31T04:37:03;9.10;;;3.97;;
75941;SDS011;64622;46.220;19.878;2023-07-31T04:39:30;10.00;;;4.00;;
75941;SDS011;64622;46.220;19.878;2023-07-31T04:41:57;8.73;;;3.70;;
75941;SDS011;64622;46.220;19.878;2023-07-31T04:44:23;8.07;;;3.80;;
75941;SDS011;64622;46.220;19.878;2023-07-31T04:46:50;8.90;;;3.75;;
75941;SDS011;64622;46.220;19.878;2023-07-31T04:49:16;11.50;;;3.60;;
75941;SDS011;64622;46.220;19.878;2023-07-31T04:51:43;8.82;;;3.47;;
75941;SDS011;64622;46.220;19.878;2023-07-31T04:54:10;8.65;;;3.60;;
75941;SDS011;64622;46.220;19.878;2023-07-31T04:56:38;9.18;;;3.70;;
75941;SDS011;64622;46.220;19.878;2023-07-31T04:59:04;8.65;;;3.60;;
75941;SDS011;64622;46.220;19.878;2023-07-31T05:01:31;8.27;;;3.27;;
75941;SDS011;64622;46.220;19.878;2023-07-31T05:03:58;8.45;;;3.15;;
75941;SDS011;64622;46.220;19.878;2023-07-31T05:06:24;7.70;;;3.12;;
75941;SDS011;64622;46.220;19.878;2023-07-31T05:08:51;7.22;;;2.53;;
75941;SDS011;64622;46.220;19.878;2023-07-31T05:11:17;6.75;;;2.60;;
75941;SDS011;64622;46.220;19.878;2023-07-31T05:13:44;8.53;;;2.63;;
75941;SDS011;64622;46.220;19.878;2023-07-31T05:16:10;7.18;;;2.42;;
75941;SDS011;64622;46.220;19.878;2023-07-31T05:18:37;8.52;;;2.40;;
75941;SDS011;64622;46.220;19.878;2023-07-31T05:21:03;9.95;;;2.08;;
75941;SDS011;64622;46.220;19.878;2023-07-31T05:23:30;6.55;;;2.28;;
75941;SDS011;64622;46.220;19.878;2023-07-31T05:26:05;7.13;;;2.57;;
75941;SDS011;64622;46.220;19.878;2023-07-31T05:28:34;8.75;;;2.55;;
75941;SDS011;64622;46.220;19.878;2023-07-31T05:31:04;7.80;;;2.30;;
75941;SDS011;64622;46.220;19.878;2023-07-31T05:33:31;9.10;;;2.20;;
75941;SDS011;64622;46.220;19.878;2023-07-31T05:35:58;7.55;;;2.40;;
75941;SDS011;64622;46.220;19.878;2023-07-31T05:38:24;8.47;;;2.30;;
75941;SDS011;64622;46.220;19.878;2023-07-31T05:40:51;7.12;;;2.50;;
75941;SDS011;64622;46.220;19.878;2023-07-31T05:43:18;8.18;;;2.30;;
75941;SDS011;64622;46.220;19.878;2023-07-31T05:45:44;7.22;;;2.30;;
75941;SDS011;64622;46.220;19.878;2023-07-31T05:48:10;7.90;;;2.25;;
75941;SDS011;64622;46.220;19.878;2023-07-31T05:50:37;6.47;;;2.20;;
75941;SDS011;64622;46.220;19.878;2023-07-31T05:53:06;7.37;;;2.10;;
75941;SDS011;64622;46.220;19.878;2023-07-31T05:55:33;6.20;;;2.10;;
75941;SDS011;64622;46.220;19.878;2023-07-31T05:58:00;6.68;;;2.25;;
75941;SDS011;64622;46.220;19.878;2023-07-31T06:00:27;7.55;;;2.10;;
75941;SDS011;64622;46.220;19.878;2023-07-31T06:02:54;9.20;;;2.50;;
75941;SDS011;64622;46.220;19.878;2023-07-31T06:05:20;8.23;;;2.20;;
75941;SDS011;64622;46.220;19.878;2023-07-31T06:07:47;7.93;;;2.37;;
75941;SDS011;64622;46.220;19.878;2023-07-31T06:10:13;9.25;;;2.65;;
75941;SDS011;64622;46.220;19.878;2023-07-31T06:12:40;8.30;;;2.50;;
75941;SDS011;64622;46.220;19.878;2023-07-31T06:15:06;6.70;;;2.20;;
75941;SDS011;64622;46.220;19.878;2023-07-31T06:17:33;7.85;;;2.55;;
75941;SDS011;64622;46.220;19.878;2023-07-31T06:20:00;6.97;;;2.50;;
75941;SDS011;64622;46.220;19.878;2023-07-31T06:22:26;6.60;;;2.42;;
75941;SDS011;64622;46.220;19.878;2023-07-31T06:24:53;7.25;;;2.65;;
75941;SDS011;64622;46.220;19.878;2023-07-31T06:27:20;9.40;;;2.57;;
75941;SDS011;64622;46.220;19.878;2023-07-31T06:29:46;7.80;;;3.15;;
75941;SDS011;64622;46.220;19.878;2023-07-31T06:32:13;9.52;;;2.70;;
75941;SDS011;64622;46.220;19.878;2023-07-31T06:34:39;9.23;;;2.28;;
75941;SDS011;64622;46.220;19.878;2023-07-31T06:37:06;8.60;;;2.47;;
75941;SDS011;64622;46.220;19.878;2023-07-31T06:39:33;7.40;;;2.20;;
75941;SDS011;64622;46.220;19.878;2023-07-31T06:41:59;8.18;;;2.50;;
75941;SDS011;64622;46.220;19.878;2023-07-31T06:44:26;7.30;;;2.20;;
75941;SDS011;64622;46.220;19.878;2023-07-31T06:46:53;6.40;;;2.08;;
75941;SDS011;64622;46.220;19.878;2023-07-31T06:49:19;5.93;;;1.60;;
75941;SDS011;64622;46.220;19.878;2023-07-31T06:51:46;8.83;;;1.90;;
75941;SDS011;64622;46.220;19.878;2023-07-31T06:54:12;7.70;;;2.00;;
75941;SDS011;64622;46.220;19.878;2023-07-31T06:56:39;6.65;;;1.70;;
75941;SDS011;64622;46.220;19.878;2023-07-31T06:59:05;7.68;;;1.87;;
75941;SDS011;64622;46.220;19.878;2023-07-31T07:01:32;7.75;;;1.92;;
75941;SDS011;64622;46.220;19.878;2023-07-31T07:03:58;6.70;;;1.83;;
75941;SDS011;64622;46.220;19.878;2023-07-31T07:06:25;4.90;;;1.33;;
75941;SDS011;64622;46.220;19.878;2023-07-31T07:08:52;7.05;;;1.80;;
75941;SDS011;64622;46.220;19.878;2023-07-31T07:11:18;6.72;;;1.80;;
75941;SDS011;64622;46.220;19.878;2023-07-31T07:13:44;6.43;;;1.70;;
75941;SDS011;64622;46.220;19.878;2023-07-31T07:16:11;7.03;;;1.40;;
75941;SDS011;64622;46.220;19.878;2023-07-31T07:18:38;6.12;;;1.50;;
75941;SDS011;64622;46.220;19.878;2023-07-31T07:21:04;6.82;;;1.70;;
75941;SDS011;64622;46.220;19.878;2023-07-31T07:23:31;6.03;;;1.65;;
75941;SDS011;64622;46.220;19.878;2023-07-31T07:25:57;6.95;;;1.70;;
75941;SDS011;64622;46.220;19.878;2023-07-31T07:28:24;6.00;;;1.50;;
75941;SDS011;64622;46.220;19.878;2023-07-31T07:30:51;6.43;;;1.40;;
75941;SDS011;64622;46.220;19.878;2023-07-31T07:33:19;6.07;;;1.45;;
75941;SDS011;64622;46.220;19.878;2023-07-31T07:35:46;5.97;;;1.48;;
75941;SDS011;64622;46.220;19.878;2023-07-31T07:38:13;7.40;;;1.33;;
75941;SDS011;64622;46.220;19.878;2023-07-31T07:40:41;6.07;;;1.40;;
75941;SDS011;64622;46.220;19.878;2023-07-31T07:43:08;6.57;;;1.67;;
75941;SDS011;64622;46.220;19.878;2023-07-31T07:45:34;7.12;;;1.60;;
75941;SDS011;64622;46.220;19.878;2023-07-31T07:48:01;8.38;;;1.75;;
75941;SDS011;64622;46.220;19.878;2023-07-31T07:50:27;6.32;;;1.48;;
75941;SDS011;64622;46.220;19.878;2023-07-31T07:52:54;6.27;;;1.47;;
75941;SDS011;64622;46.220;19.878;2023-07-31T07:55:20;7.35;;;1.55;;
75941;SDS011;64622;46.220;19.878;2023-07-31T07:57:46;6.22;;;1.50;;
75941;SDS011;64622;46.220;19.878;2023-07-31T08:00:13;6.47;;;1.60;;
75941;SDS011;64622;46.220;19.878;2023-07-31T08:02:40;7.10;;;1.55;;
75941;SDS011;64622;46.220;19.878;2023-07-31T08:05:06;7.33;;;1.67;;
75941;SDS011;64622;46.220;19.878;2023-07-31T08:07:34;7.45;;;1.50;;
75941;SDS011;64622;46.220;19.878;2023-07-31T08:10:00;8.98;;;1.60;;
75941;SDS011;64622;46.220;19.878;2023-07-31T08:12:27;6.53;;;1.77;;
75941;SDS011;64622;46.220;19.878;2023-07-31T08:14:54;7.80;;;1.48;;
75941;SDS011;64622;46.220;19.878;2023-07-31T08:17:20;7.27;;;1.50;;
75941;SDS011;64622;46.220;19.878;2023-07-31T08:19:47;6.32;;;1.50;;
75941;SDS011;64622;46.220;19.878;2023-07-31T08:22:13;6.87;;;1.87;;
75941;SDS011;64622;46.220;19.878;2023-07-31T08:24:40;6.35;;;1.50;;
75941;SDS011;64622;46.220;19.878;2023-07-31T08:27:07;7.50;;;1.80;;
75941;SDS011;64622;46.220;19.878;2023-07-31T08:29:33;7.57;;;1.53;;
75941;SDS011;64622;46.220;19.878;2023-07-31T08:32:00;7.22;;;1.58;;
75941;SDS011;64622;46.220;19.878;2023-07-31T08:34:26;7.12;;;1.50;;
75941;SDS011;64622;46.220;19.878;2023-07-31T08:36:53;6.40;;;1.10;;
75941;SDS011;64622;46.220;19.878;2023-07-31T08:39:19;5.95;;;1.17;;
75941;SDS011;64622;46.220;19.878;2023-07-31T08:41:47;5.43;;;1.33;;
75941;SDS011;64622;46.220;19.878;2023-07-31T08:44:13;6.43;;;1.30;;
75941;SDS011;64622;46.220;19.878;2023-07-31T08:46:41;6.68;;;1.37;;
75941;SDS011;64622;46.220;19.878;2023-07-31T08:49:08;6.95;;;1.50;;
75941;SDS011;64622;46.220;19.878;2023-07-31T08:51:36;7.10;;;1.30;;
75941;SDS011;64622;46.220;19.878;2023-07-31T08:54:03;5.10;;;0.83;;
75941;SDS011;64622;46.220;19.878;2023-07-31T08:56:31;5.95;;;1.25;;
75941;SDS011;64622;46.220;19.878;2023-07-31T08:58:59;6.28;;;1.52;;
75941;SDS011;64622;46.220;19.878;2023-07-31T09:01:30;6.97;;;1.35;;
75941;SDS011;64622;46.220;19.878;2023-07-31T09:03:59;5.60;;;1.17;;
75941;SDS011;64622;46.220;19.878;2023-07-31T09:06:28;5.73;;;1.00;;
75941;SDS011;64622;46.220;19.878;2023-07-31T09:08:55;4.95;;;0.93;;
75941;SDS011;64622;46.220;19.878;2023-07-31T09:11:22;8.05;;;1.00;;
75941;SDS011;64622;46.220;19.878;2023-07-31T09:13:50;5.68;;;0.82;;
75941;SDS011;64622;46.220;19.878;2023-07-31T09:16:18;5.10;;;0.90;;
75941;SDS011;64622;46.220;19.878;2023-07-31T09:18:54;8.93;;;1.10;;
75941;SDS011;64622;46.220;19.878;2023-07-31T09:21:22;5.18;;;1.10;;
75941;SDS011;64622;46.220;19.878;2023-07-31T09:23:50;7.75;;;1.10;;
75941;SDS011;64622;46.220;19.878;2023-07-31T09:26:33;8.20;;;1.23;;
75941;SDS011;64622;46.220;19.878;2023-07-31T09:29:02;5.70;;;1.00;;
75941;SDS011;64622;46.220;19.878;2023-07-31T09:31:31;5.43;;;1.00;;
75941;SDS011;64622;46.220;19.878;2023-07-31T09:33:59;6.75;;;0.98;;
75941;SDS011;64622;46.220;19.878;2023-07-31T09:36:28;6.25;;;1.10;;
75941;SDS011;64622;46.220;19.878;2023-07-31T09:38:58;5.90;;;1.00;;
75941;SDS011;64622;46.220;19.878;2023-07-31T09:41:30;9.35;;;1.08;;
75941;SDS011;64622;46.220;19.878;2023-07-31T09:43:57;6.10;;;1.00;;
75941;SDS011;64622;46.220;19.878;2023-07-31T09:46:26;6.47;;;1.20;;
75941;SDS011;64622;46.220;19.878;2023-07-31T09:48:58;6.40;;;1.25;;
75941;SDS011;64622;46.220;19.878;2023-07-31T09:51:38;8.85;;;1.20;;
75941;SDS011;64622;46.220;19.878;2023-07-31T09:54:15;6.37;;;1.27;;
75941;SDS011;64622;46.220;19.878;2023-07-31T09:56:46;9.80;;;1.30;;
75941;SDS011;64622;46.220;19.878;2023-07-31T09:59:15;7.37;;;1.00;;
75941;SDS011;64622;46.220;19.878;2023-07-31T10:01:44;5.62;;;1.00;;
75941;SDS011;64622;46.220;19.878;2023-07-31T10:04:13;5.55;;;1.20;;
75941;SDS011;64622;46.220;19.878;2023-07-31T10:06:40;6.25;;;1.12;;
75941;SDS011;64622;46.220;19.878;2023-07-31T10:09:10;8.47;;;1.27;;
75941;SDS011;64622;46.220;19.878;2023-07-31T10:11:47;7.18;;;1.10;;
75941;SDS011;64622;46.220;19.878;2023-07-31T10:14:22;4.25;;;0.70;;
75941;SDS011;64622;46.220;19.878;2023-07-31T10:16:50;7.07;;;1.40;;
75941;SDS011;64622;46.220;19.878;2023-07-31T10:19:18;5.90;;;1.15;;
75941;SDS011;64622;46.220;19.878;2023-07-31T10:21:45;7.03;;;0.80;;
75941;SDS011;64622;46.220;19.878;2023-07-31T10:24:14;6.15;;;1.10;;
75941;SDS011;64622;46.220;19.878;2023-07-31T10:26:42;7.53;;;1.10;;
75941;SDS011;64622;46.220;19.878;2023-07-31T10:29:12;6.30;;;1.10;;
75941;SDS011;64622;46.220;19.878;2023-07-31T10:31:40;6.35;;;1.10;;
75941;SDS011;64622;46.220;19.878;2023-07-31T10:34:07;5.00;;;0.87;;
75941;SDS011;64622;46.220;19.878;2023-07-31T10:36:34;6.57;;;1.12;;
75941;SDS011;64622;46.220;19.878;2023-07-31T10:39:00;7.05;;;1.10;;
75941;SDS011;64622;46.220;19.878;2023-07-31T10:41:30;7.03;;;0.90;;
75941;SDS011;64622;46.220;19.878;2023-07-31T10:44:00;7.30;;;0.70;;
75941;SDS011;64622;46.220;19.878;2023-07-31T10:46:27;5.83;;;1.00;;
75941;SDS011;64622;46.220;19.878;2023-07-31T10:48:59;5.43;;;1.10;;
75941;SDS011;64622;46.220;19.878;2023-07-31T10:51:34;6.28;;;1.10;;
75941;SDS011;64622;46.220;19.878;2023-07-31T10:54:11;6.78;;;0.90;;
75941;SDS011;64622;46.220;19.878;2023-07-31T10:56:39;6.28;;;1.30;;
75941;SDS011;64622;46.220;19.878;2023-07-31T10:59:06;8.53;;;1.00;;
75941;SDS011;64622;46.220;19.878;2023-07-31T11:04:25;8.25;;;1.33;;
75941;SDS011;64622;46.220;19.878;2023-07-31T11:06:56;5.97;;;1.00;;
75941;SDS011;64622;46.220;19.878;2023-07-31T11:09:27;6.18;;;1.12;;
75941;SDS011;64622;46.220;19.878;2023-07-31T11:11:56;8.47;;;1.00;;
75941;SDS011;64622;46.220;19.878;2023-07-31T11:14:22;5.70;;;1.10;;
75941;SDS011;64622;46.220;19.878;2023-07-31T11:16:50;6.07;;;0.90;;
75941;SDS011;64622;46.220;19.878;2023-07-31T11:19:23;5.95;;;1.08;;
75941;SDS011;64622;46.220;19.878;2023-07-31T11:21:53;7.18;;;1.20;;
75941;SDS011;64622;46.220;19.878;2023-07-31T11:24:20;11.03;;;1.20;;
75941;SDS011;64622;46.220;19.878;2023-07-31T11:26:50;7.43;;;1.20;;
75941;SDS011;64622;46.220;19.878;2023-07-31T11:29:18;6.68;;;1.10;;
75941;SDS011;64622;46.220;19.878;2023-07-31T11:31:46;8.20;;;1.20;;
75941;SDS011;64622;46.220;19.878;2023-07-31T11:34:15;5.18;;;0.90;;
75941;SDS011;64622;46.220;19.878;2023-07-31T11:36:52;5.43;;;1.10;;
75941;SDS011;64622;46.220;19.878;2023-07-31T11:39:19;8.75;;;1.10;;
75941;SDS011;64622;46.220;19.878;2023-07-31T11:41:46;7.03;;;1.02;;
75941;SDS011;64622;46.220;19.878;2023-07-31T11:44:13;5.35;;;0.88;;
75941;SDS011;64622;46.220;19.878;2023-07-31T11:46:39;9.05;;;1.02;;
75941;SDS011;64622;46.220;19.878;2023-07-31T11:49:06;9.43;;;1.10;;
75941;SDS011;64622;46.220;19.878;2023-07-31T11:51:33;7.78;;;1.00;;
75941;SDS011;64622;46.220;19.878;2023-07-31T11:54:00;6.10;;;0.95;;
75941;SDS011;64622;46.220;19.878;2023-07-31T11:56:28;6.30;;;1.00;;
75941;SDS011;64622;46.220;19.878;2023-07-31T11:58:57;6.57;;;1.30;;
75941;SDS011;64622;46.220;19.878;2023-07-31T12:01:26;8.27;;;1.73;;
75941;SDS011;64622;46.220;19.878;2023-07-31T12:03:54;7.90;;;1.10;;
75941;SDS011;64622;46.220;19.878;2023-07-31T12:06:22;7.37;;;1.12;;
75941;SDS011;64622;46.220;19.878;2023-07-31T12:09:03;5.22;;;1.00;;
75941;SDS011;64622;46.220;19.878;2023-07-31T12:11:31;6.53;;;0.98;;
75941;SDS011;64622;46.220;19.878;2023-07-31T12:13:58;6.70;;;1.20;;
75941;SDS011;64622;46.220;19.878;2023-07-31T12:16:26;8.18;;;1.00;;
75941;SDS011;64622;46.220;19.878;2023-07-31T12:18:54;6.05;;;1.23;;
75941;SDS011;64622;46.220;19.878;2023-07-31T12:21:21;5.32;;;1.08;;
75941;SDS011;64622;46.220;19.878;2023-07-31T12:23:48;7.15;;;1.33;;
75941;SDS011;64622;46.220;19.878;2023-07-31T12:26:15;10.73;;;1.30;;
75941;SDS011;64622;46.220;19.878;2023-07-31T12:31:11;5.93;;;0.98;;
75941;SDS011;64622;46.220;19.878;2023-07-31T12:33:39;7.40;;;1.00;;
75941;SDS011;64622;46.220;19.878;2023-07-31T12:36:08;4.45;;;0.68;;
75941;SDS011;64622;46.220;19.878;2023-07-31T12:38:37;7.60;;;1.00;;
75941;SDS011;64622;46.220;19.878;2023-07-31T12:41:04;5.32;;;0.95;;
75941;SDS011;64622;46.220;19.878;2023-07-31T12:43:32;6.15;;;0.90;;
75941;SDS011;64622;46.220;19.878;2023-07-31T12:46:00;6.25;;;0.90;;
75941;SDS011;64622;46.220;19.878;2023-07-31T12:48:26;5.82;;;1.00;;
75941;SDS011;64622;46.220;19.878;2023-07-31T12:50:52;5.10;;;1.00;;
75941;SDS011;64622;46.220;19.878;2023-07-31T12:53:19;4.60;;;0.80;;
75941;SDS011;64622;46.220;19.878;2023-07-31T12:55:46;5.97;;;1.00;;
75941;SDS011;64622;46.220;19.878;2023-07-31T12:58:13;5.87;;;1.10;;
75941;SDS011;64622;46.220;19.878;2023-07-31T13:00:39;6.28;;;1.08;;
75941;SDS011;64622;46.220;19.878;2023-07-31T13:03:06;9.20;;;1.30;;
75941;SDS011;64622;46.220;19.878;2023-07-31T13:05:32;6.55;;;1.08;;
75941;SDS011;64622;46.220;19.878;2023-07-31T13:07:59;5.50;;;1.00;;
75941;SDS011;64622;46.220;19.878;2023-07-31T13:10:26;5.87;;;0.90;;
75941;SDS011;64622;46.220;19.878;2023-07-31T13:12:54;7.05;;;1.00;;
75941;SDS011;64622;46.220;19.878;2023-07-31T13:15:21;9.03;;;1.27;;
75941;SDS011;64622;46.220;19.878;2023-07-31T13:17:48;7.30;;;0.85;;
75941;SDS011;64622;46.220;19.878;2023-07-31T13:20:14;6.30;;;1.10;;
75941;SDS011;64622;46.220;19.878;2023-07-31T13:22:41;5.87;;;1.00;;
75941;SDS011;64622;46.220;19.878;2023-07-31T13:25:08;10.40;;;1.30;;
75941;SDS011;64622;46.220;19.878;2023-07-31T13:27:35;6.27;;;1.37;;
75941;SDS011;64622;46.220;19.878;2023-07-31T13:30:02;8.95;;;1.12;;
75941;SDS011;64622;46.220;19.878;2023-07-31T13:32:29;6.32;;;0.90;;
75941;SDS011;64622;46.220;19.878;2023-07-31T13:34:56;6.53;;;1.20;;
75941;SDS011;64622;46.220;19.878;2023-07-31T13:37:23;6.65;;;1.08;;
75941;SDS011;64622;46.220;19.878;2023-07-31T13:39:49;6.93;;;1.23;;
75941;SDS011;64622;46.220;19.878;2023-07-31T13:42:15;9.13;;;1.10;;
75941;SDS011;64622;46.220;19.878;2023-07-31T13:44:42;6.03;;;1.00;;
75941;SDS011;64622;46.220;19.878;2023-07-31T13:47:09;5.45;;;0.93;;
75941;SDS011;64622;46.220;19.878;2023-07-31T13:49:36;7.90;;;1.10;;
75941;SDS011;64622;46.220;19.878;2023-07-31T13:52:03;6.77;;;1.07;;
75941;SDS011;64622;46.220;19.878;2023-07-31T13:54:30;7.15;;;1.15;;
75941;SDS011;64622;46.220;19.878;2023-07-31T13:56:56;5.03;;;0.80;;
75941;SDS011;64622;46.220;19.878;2023-07-31T13:59:23;6.68;;;1.10;;
75941;SDS011;64622;46.220;19.878;2023-07-31T14:01:50;6.07;;;1.10;;
75941;SDS011;64622;46.220;19.878;2023-07-31T14:04:17;6.20;;;0.90;;
75941;SDS011;64622;46.220;19.878;2023-07-31T14:06:43;6.57;;;1.30;;
75941;SDS011;64622;46.220;19.878;2023-07-31T14:09:10;6.25;;;1.05;;
75941;SDS011;64622;46.220;19.878;2023-07-31T14:11:37;7.18;;;0.93;;
75941;SDS011;64622;46.220;19.878;2023-07-31T14:14:04;6.03;;;1.00;;
75941;SDS011;64622;46.220;19.878;2023-07-31T14:16:30;6.87;;;0.90;;
75941;SDS011;64622;46.220;19.878;2023-07-31T14:18:57;6.15;;;1.02;;
75941;SDS011;64622;46.220;19.878;2023-07-31T14:21:25;6.82;;;1.20;;
75941;SDS011;64622;46.220;19.878;2023-07-31T14:23:52;6.62;;;0.95;;
75941;SDS011;64622;46.220;19.878;2023-07-31T14:26:19;6.25;;;1.30;;
75941;SDS011;64622;46.220;19.878;2023-07-31T14:28:46;5.57;;;1.00;;
75941;SDS011;64622;46.220;19.878;2023-07-31T14:31:12;9.52;;;1.17;;
75941;SDS011;64622;46.220;19.878;2023-07-31T14:33:39;5.78;;;0.80;;
75941;SDS011;64622;46.220;19.878;2023-07-31T14:36:06;4.87;;;0.90;;
75941;SDS011;64622;46.220;19.878;2023-07-31T14:38:32;4.32;;;0.70;;
75941;SDS011;64622;46.220;19.878;2023-07-31T14:40:59;6.37;;;0.90;;
75941;SDS011;64622;46.220;19.878;2023-07-31T14:43:26;7.35;;;1.00;;
75941;SDS011;64622;46.220;19.878;2023-07-31T14:45:52;12.88;;;1.23;;